sensor_id;sensor_type;location;lat;lon;timestamp;P1;durP1;ratioP1;P2;durP2;ratioP2
58152;SDS011;43967;51.634;5.566;2024-02-21T08:43:40;9.40;;;3.17;;
58152;SDS011;43967;51.634;5.566;2024-02-21T08:49:01;9.07;;;2.88;;
58152;SDS011;43967;51.634;5.566;2024-02-21T08:54:23;7.80;;;2.70;;
58152;SDS011;43967;51.634;5.566;2024-02-21T08:59:44;8.37;;;2.60;;
58152;SDS011;43967;51.634;5.566;2024-02-21T09:05:05;7.90;;;2.20;;
58152;SDS011;43967;51.634;5.566;2024-02-21T09:10:27;6.60;;;2.17;;
58152;SDS011;43967;51.634;5.566;2024-02-21T09:15:48;8.33;;;2.53;;
58152;SDS011;43967;51.634;5.566;2024-02-21T09:21:09;8.02;;;2.30;;
58152;SDS011;43967;51.634;5.566;2024-02-21T09:26:31;7.07;;;2.40;;
58152;SDS011;43967;51.634;5.566;2024-02-21T09:31:52;6.87;;;2.20;;
58152;SDS011;43967;51.634;5.566;2024-02-21T09:37:13;11.30;;;2.30;;
58152;SDS011;43967;51.634;5.566;2024-02-21T09:42:38;6.63;;;2.60;;
58152;SDS011;43967;51.634;5.566;2024-02-21T09:53:53;6.67;;;2.43;;
58152;SDS011;43967;51.634;5.566;2024-02-21T09:59:17;8.50;;;2.40;;
58152;SDS011;43967;51.634;5.566;2024-02-21T10:04:39;7.72;;;2.65;;
58152;SDS011;43967;51.634;5.566;2024-02-21T10:10:01;8.03;;;2.70;;
58152;SDS011;43967;51.634;5.566;2024-02-21T10:15:26;6.97;;;2.47;;
58152;SDS011;43967;51.634;5.566;2024-02-21T10:20:47;6.60;;;2.38;;
58152;SDS011;43967;51.634;5.566;2024-02-21T10:26:09;9.17;;;2.77;;
58152;SDS011;43967;51.634;5.566;2024-02-21T10:31:30;7.70;;;2.53;;
58152;SDS011;43967;51.634;5.566;2024-02-21T10:36:59;6.75;;;2.35;;
58152;SDS011;43967;51.634;5.566;2024-02-21T10:42:28;7.60;;;2.80;;
58152;SDS011;43967;51.634;5.566;2024-02-21T10:47:51;6.37;;;2.33;;
58152;SDS011;43967;51.634;5.566;2024-02-21T10:58:49;7.75;;;2.30;;
58152;SDS011;43967;51.634;5.566;2024-02-21T11:04:11;7.27;;;2.50;;
58152;SDS011;43967;51.634;5.566;2024-02-21T11:09:33;5.90;;;2.00;;
58152;SDS011;43967;51.634;5.566;2024-02-21T11:15:06;6.85;;;2.58;;
58152;SDS011;43967;51.634;5.566;2024-02-21T11:20:34;8.97;;;2.90;;
58152;SDS011;43967;51.634;5.566;2024-02-21T11:26:05;15.57;;;6.50;;
58152;SDS011;43967;51.634;5.566;2024-02-21T11:31:27;15.32;;;8.40;;
58152;SDS011;43967;51.634;5.566;2024-02-21T11:37:02;15.05;;;8.10;;
58152;SDS011;43967;51.634;5.566;2024-02-21T11:42:34;15.77;;;8.10;;
58152;SDS011;43967;51.634;5.566;2024-02-21T11:47:56;14.57;;;9.10;;
58152;SDS011;43967;51.634;5.566;2024-02-21T11:53:18;12.52;;;7.65;;
58152;SDS011;43967;51.634;5.566;2024-02-21T11:58:39;13.17;;;7.63;;
58152;SDS011;43967;51.634;5.566;2024-02-21T12:04:00;12.88;;;7.00;;
58152;SDS011;43967;51.634;5.566;2024-02-21T12:09:22;13.45;;;6.72;;
58152;SDS011;43967;51.634;5.566;2024-02-21T12:14:45;12.27;;;6.50;;
58152;SDS011;43967;51.634;5.566;2024-02-21T12:20:06;12.73;;;6.43;;
58152;SDS011;43967;51.634;5.566;2024-02-21T12:25:27;14.88;;;6.90;;
58152;SDS011;43967;51.634;5.566;2024-02-21T12:30:49;10.18;;;5.68;;
58152;SDS011;43967;51.634;5.566;2024-02-21T12:36:10;10.90;;;5.57;;
58152;SDS011;43967;51.634;5.566;2024-02-21T12:41:31;12.02;;;5.40;;
58152;SDS011;43967;51.634;5.566;2024-02-21T12:46:52;10.60;;;5.00;;
58152;SDS011;43967;51.634;5.566;2024-02-21T12:52:14;13.87;;;5.57;;
58152;SDS011;43967;51.634;5.566;2024-02-21T12:57:35;9.27;;;4.75;;
58152;SDS011;43967;51.634;5.566;2024-02-21T13:02:56;11.63;;;4.85;;
58152;SDS011;43967;51.634;5.566;2024-02-21T13:08:18;12.03;;;5.17;;
58152;SDS011;43967;51.634;5.566;2024-02-21T13:13:39;10.23;;;4.67;;
58152;SDS011;43967;51.634;5.566;2024-02-21T13:19:00;9.88;;;4.53;;
58152;SDS011;43967;51.634;5.566;2024-02-21T13:24:21;9.52;;;4.72;;
58152;SDS011;43967;51.634;5.566;2024-02-21T13:29:43;10.17;;;4.50;;
58152;SDS011;43967;51.634;5.566;2024-02-21T13:35:04;9.23;;;4.40;;
58152;SDS011;43967;51.634;5.566;2024-02-21T13:40:25;9.15;;;4.15;;
58152;SDS011;43967;51.634;5.566;2024-02-21T13:45:55;9.70;;;4.00;;
58152;SDS011;43967;51.634;5.566;2024-02-21T13:51:17;7.53;;;3.92;;
58152;SDS011;43967;51.634;5.566;2024-02-21T13:56:39;8.00;;;3.58;;
58152;SDS011;43967;51.634;5.566;2024-02-21T14:02:00;10.57;;;4.00;;
58152;SDS011;43967;51.634;5.566;2024-02-21T14:07:21;9.30;;;4.20;;
58152;SDS011;43967;51.634;5.566;2024-02-21T14:12:42;8.85;;;3.58;;
58152;SDS011;43967;51.634;5.566;2024-02-21T14:18:04;9.73;;;3.75;;
58152;SDS011;43967;51.634;5.566;2024-02-21T14:23:25;8.90;;;3.93;;
58152;SDS011;43967;51.634;5.566;2024-02-21T14:28:46;8.73;;;3.50;;
58152;SDS011;43967;51.634;5.566;2024-02-21T14:34:07;10.07;;;3.60;;
58152;SDS011;43967;51.634;5.566;2024-02-21T14:39:29;8.93;;;3.47;;
58152;SDS011;43967;51.634;5.566;2024-02-21T14:44:50;7.53;;;3.40;;
58152;SDS011;43967;51.634;5.566;2024-02-21T14:50:12;8.50;;;3.10;;
58152;SDS011;43967;51.634;5.566;2024-02-21T14:55:33;8.27;;;3.27;;
58152;SDS011;43967;51.634;5.566;2024-02-21T15:00:55;8.43;;;3.50;;
58152;SDS011;43967;51.634;5.566;2024-02-21T15:06:16;8.48;;;3.17;;
58152;SDS011;43967;51.634;5.566;2024-02-21T15:11:37;7.82;;;3.08;;
58152;SDS011;43967;51.634;5.566;2024-02-21T15:16:59;9.43;;;3.00;;
58152;SDS011;43967;51.634;5.566;2024-02-21T15:22:20;7.65;;;3.20;;
58152;SDS011;43967;51.634;5.566;2024-02-21T15:27:42;8.25;;;3.17;;
58152;SDS011;43967;51.634;5.566;2024-02-21T15:33:03;8.03;;;2.90;;
58152;SDS011;43967;51.634;5.566;2024-02-21T15:38:25;8.18;;;2.78;;
58152;SDS011;43967;51.634;5.566;2024-02-21T15:43:46;8.18;;;2.70;;
58152;SDS011;43967;51.634;5.566;2024-02-21T15:49:07;7.27;;;2.67;;
58152;SDS011;43967;51.634;5.566;2024-02-21T15:54:28;7.50;;;2.80;;
58152;SDS011;43967;51.634;5.566;2024-02-21T15:59:50;7.55;;;2.70;;
58152;SDS011;43967;51.634;5.566;2024-02-21T16:05:11;9.13;;;2.63;;
58152;SDS011;43967;51.634;5.566;2024-02-21T16:10:32;9.10;;;2.80;;
58152;SDS011;43967;51.634;5.566;2024-02-21T16:15:53;6.72;;;2.90;;
58152;SDS011;43967;51.634;5.566;2024-02-21T16:21:15;6.70;;;2.58;;
58152;SDS011;43967;51.634;5.566;2024-02-21T16:26:36;6.87;;;2.83;;
58152;SDS011;43967;51.634;5.566;2024-02-21T16:31:58;7.60;;;2.83;;
58152;SDS011;43967;51.634;5.566;2024-02-21T16:37:20;6.88;;;2.22;;
58152;SDS011;43967;51.634;5.566;2024-02-21T16:42:41;5.83;;;2.17;;
58152;SDS011;43967;51.634;5.566;2024-02-21T16:48:02;7.23;;;3.03;;
58152;SDS011;43967;51.634;5.566;2024-02-21T16:53:24;7.30;;;2.75;;
58152;SDS011;43967;51.634;5.566;2024-02-21T16:58:45;6.13;;;2.40;;
58152;SDS011;43967;51.634;5.566;2024-02-21T17:04:06;6.10;;;2.30;;
58152;SDS011;43967;51.634;5.566;2024-02-21T17:09:28;7.30;;;2.58;;
58152;SDS011;43967;51.634;5.566;2024-02-21T17:14:49;7.18;;;2.60;;
58152;SDS011;43967;51.634;5.566;2024-02-21T17:20:11;7.67;;;2.80;;
58152;SDS011;43967;51.634;5.566;2024-02-21T17:25:32;6.70;;;2.20;;
58152;SDS011;43967;51.634;5.566;2024-02-21T17:30:53;6.88;;;2.60;;
58152;SDS011;43967;51.634;5.566;2024-02-21T17:36:15;7.30;;;2.53;;
58152;SDS011;43967;51.634;5.566;2024-02-21T17:41:36;6.77;;;2.73;;
58152;SDS011;43967;51.634;5.566;2024-02-21T17:46:57;7.82;;;2.28;;
58152;SDS011;43967;51.634;5.566;2024-02-21T17:52:19;7.00;;;2.78;;
58152;SDS011;43967;51.634;5.566;2024-02-21T17:57:40;7.53;;;3.03;;
58152;SDS011;43967;51.634;5.566;2024-02-21T18:03:01;7.10;;;2.45;;
58152;SDS011;43967;51.634;5.566;2024-02-21T18:08:23;8.18;;;2.90;;
58152;SDS011;43967;51.634;5.566;2024-02-21T18:13:44;6.27;;;2.70;;
58152;SDS011;43967;51.634;5.566;2024-02-21T18:19:05;8.10;;;2.90;;
58152;SDS011;43967;51.634;5.566;2024-02-21T18:24:26;7.68;;;2.90;;
58152;SDS011;43967;51.634;5.566;2024-02-21T18:29:50;47.37;;;24.77;;
58152;SDS011;43967;51.634;5.566;2024-02-21T18:35:11;67.00;;;37.23;;
58152;SDS011;43967;51.634;5.566;2024-02-21T18:40:32;65.45;;;37.90;;
58152;SDS011;43967;51.634;5.566;2024-02-21T18:45:53;61.58;;;34.25;;
58152;SDS011;43967;51.634;5.566;2024-02-21T18:51:16;58.03;;;33.57;;
58152;SDS011;43967;51.634;5.566;2024-02-21T18:56:38;54.95;;;32.22;;
58152;SDS011;43967;51.634;5.566;2024-02-21T19:02:00;53.00;;;32.17;;
58152;SDS011;43967;51.634;5.566;2024-02-21T19:07:21;55.70;;;30.93;;
58152;SDS011;43967;51.634;5.566;2024-02-21T19:12:42;50.65;;;30.05;;
58152;SDS011;43967;51.634;5.566;2024-02-21T19:18:03;49.85;;;28.40;;
58152;SDS011;43967;51.634;5.566;2024-02-21T19:23:25;45.43;;;27.83;;
58152;SDS011;43967;51.634;5.566;2024-02-21T19:28:46;45.57;;;26.63;;
58152;SDS011;43967;51.634;5.566;2024-02-21T19:34:07;42.88;;;25.17;;
58152;SDS011;43967;51.634;5.566;2024-02-21T19:39:32;44.45;;;24.13;;
58152;SDS011;43967;51.634;5.566;2024-02-21T19:44:53;39.17;;;23.53;;
58152;SDS011;43967;51.634;5.566;2024-02-21T19:50:14;39.20;;;22.20;;
58152;SDS011;43967;51.634;5.566;2024-02-21T19:55:36;38.25;;;21.33;;
58152;SDS011;43967;51.634;5.566;2024-02-21T20:00:57;36.17;;;21.10;;
58152;SDS011;43967;51.634;5.566;2024-02-21T20:06:18;34.67;;;20.20;;
58152;SDS011;43967;51.634;5.566;2024-02-21T20:11:39;33.10;;;19.60;;
58152;SDS011;43967;51.634;5.566;2024-02-21T20:17:01;31.63;;;19.23;;
58152;SDS011;43967;51.634;5.566;2024-02-21T20:22:22;30.83;;;17.50;;
58152;SDS011;43967;51.634;5.566;2024-02-21T20:27:43;29.48;;;17.73;;
58152;SDS011;43967;51.634;5.566;2024-02-21T20:33:04;31.40;;;17.88;;
58152;SDS011;43967;51.634;5.566;2024-02-21T20:38:26;27.80;;;16.33;;
58152;SDS011;43967;51.634;5.566;2024-02-21T20:43:47;27.58;;;17.05;;
58152;SDS011;43967;51.634;5.566;2024-02-21T20:49:09;28.77;;;15.52;;
58152;SDS011;43967;51.634;5.566;2024-02-21T20:54:30;24.63;;;15.20;;
58152;SDS011;43967;51.634;5.566;2024-02-21T20:59:52;26.90;;;14.50;;
58152;SDS011;43967;51.634;5.566;2024-02-21T21:05:13;24.13;;;13.90;;
58152;SDS011;43967;51.634;5.566;2024-02-21T21:10:35;24.17;;;13.87;;
58152;SDS011;43967;51.634;5.566;2024-02-21T21:15:59;26.93;;;13.77;;
58152;SDS011;43967;51.634;5.566;2024-02-21T21:21:21;25.00;;;14.20;;
58152;SDS011;43967;51.634;5.566;2024-02-21T21:26:42;21.98;;;12.95;;
58152;SDS011;43967;51.634;5.566;2024-02-21T21:32:03;21.87;;;12.97;;
58152;SDS011;43967;51.634;5.566;2024-02-21T21:37:25;22.67;;;12.70;;
58152;SDS011;43967;51.634;5.566;2024-02-21T21:42:46;20.83;;;10.63;;
58152;SDS011;43967;51.634;5.566;2024-02-21T21:48:08;20.27;;;11.10;;
58152;SDS011;43967;51.634;5.566;2024-02-21T21:53:29;18.65;;;9.93;;
58152;SDS011;43967;51.634;5.566;2024-02-21T21:58:50;18.70;;;10.80;;
58152;SDS011;43967;51.634;5.566;2024-02-21T22:04:11;17.57;;;10.37;;
58152;SDS011;43967;51.634;5.566;2024-02-21T22:09:33;20.17;;;10.30;;
58152;SDS011;43967;51.634;5.566;2024-02-21T22:14:54;18.38;;;9.25;;
58152;SDS011;43967;51.634;5.566;2024-02-21T22:20:15;19.15;;;10.00;;
58152;SDS011;43967;51.634;5.566;2024-02-21T22:25:36;16.63;;;8.93;;
58152;SDS011;43967;51.634;5.566;2024-02-21T22:30:58;16.83;;;9.00;;
58152;SDS011;43967;51.634;5.566;2024-02-21T22:36:19;18.05;;;8.90;;
58152;SDS011;43967;51.634;5.566;2024-02-21T22:41:40;16.60;;;8.83;;
58152;SDS011;43967;51.634;5.566;2024-02-21T22:47:01;16.02;;;8.57;;
58152;SDS011;43967;51.634;5.566;2024-02-21T22:52:23;14.38;;;8.02;;
58152;SDS011;43967;51.634;5.566;2024-02-21T22:57:44;13.70;;;7.87;;
58152;SDS011;43967;51.634;5.566;2024-02-21T23:03:05;13.70;;;7.43;;
58152;SDS011;43967;51.634;5.566;2024-02-21T23:08:26;16.08;;;7.93;;
58152;SDS011;43967;51.634;5.566;2024-02-21T23:13:48;13.50;;;7.25;;
58152;SDS011;43967;51.634;5.566;2024-02-21T23:19:09;16.03;;;6.97;;
58152;SDS011;43967;51.634;5.566;2024-02-21T23:24:30;13.77;;;7.18;;
58152;SDS011;43967;51.634;5.566;2024-02-21T23:29:53;11.50;;;6.57;;
58152;SDS011;43967;51.634;5.566;2024-02-21T23:35:15;12.43;;;6.77;;
58152;SDS011;43967;51.634;5.566;2024-02-21T23:40:36;12.27;;;6.30;;
58152;SDS011;43967;51.634;5.566;2024-02-21T23:45:57;12.32;;;6.32;;
58152;SDS011;43967;51.634;5.566;2024-02-21T23:51:19;12.20;;;6.57;;
58152;SDS011;43967;51.634;5.566;2024-02-21T23:56:43;12.00;;;6.00;;
